createdAt,value
2022-11-26T00:00:15.321Z,15.35
2022-11-26T00:01:36.322Z,17.22
2022-11-26T00:02:59.150Z,17.16
2022-11-26T00:04:20.705Z,17.28
2022-11-26T00:05:42.926Z,16.14
2022-11-26T00:07:04.488Z,16.22
2022-11-26T00:08:32.334Z,15.56
2022-11-26T00:09:54.335Z,15.65
2022-11-26T00:11:15.601Z,15.99
2022-11-26T00:12:36.935Z,16.32
2022-11-26T00:13:58.687Z,14.93
2022-11-26T00:15:22.184Z,16.53
2022-11-26T00:16:43.722Z,14.03
2022-11-26T00:18:05.136Z,16.49
2022-11-26T00:19:26.264Z,14.33
2022-11-26T00:20:53.237Z,15.39
2022-11-26T00:22:24.890Z,16.52
2022-11-26T00:23:47.274Z,13.93
2022-11-26T00:25:22.231Z,15.54
2022-11-26T00:26:43.336Z,15.34
2022-11-26T00:28:25.885Z,16.36
2022-11-26T00:29:47.019Z,13.70
2022-11-26T00:31:13.881Z,13.58
2022-11-26T00:32:35.222Z,15.14
2022-11-26T00:34:11.482Z,14.93
2022-11-26T00:35:33.049Z,15.73
2022-11-26T00:36:54.665Z,16.76
2022-11-26T00:38:17.732Z,14.92
2022-11-26T00:39:38.931Z,14.32
2022-11-26T00:41:00.088Z,15.19
2022-11-26T00:42:21.439Z,15.56
2022-11-26T00:43:43.474Z,14.70
2022-11-26T00:45:08.625Z,15.01
2022-11-26T00:46:29.711Z,15.08
2022-11-26T00:47:51.131Z,14.78
2022-11-26T00:49:12.225Z,14.47
2022-11-26T00:51:54.608Z,14.56
2022-11-26T00:53:17.416Z,16.54
2022-11-26T00:54:39.343Z,15.74
2022-11-26T00:56:00.727Z,15.58
2022-11-26T00:57:22.243Z,18.03
2022-11-26T00:58:43.918Z,15.83
2022-11-26T01:01:26.932Z,16.96
2022-11-26T01:02:48.331Z,18.41
2022-11-26T01:04:09.814Z,22.38
2022-11-26T01:05:32.383Z,19.84
2022-11-26T01:06:53.867Z,15.32
2022-11-26T01:08:21.609Z,17.28
2022-11-26T01:09:43.576Z,17.83
2022-11-26T01:11:05.062Z,16.71
2022-11-26T01:12:26.119Z,18.18
2022-11-26T01:13:48.597Z,17.38
2022-11-26T01:15:10.430Z,17.34
2022-11-26T01:16:36.828Z,15.01
2022-11-26T01:17:58.165Z,14.55
2022-11-26T01:19:19.769Z,16.17
2022-11-26T01:20:41.317Z,15.77
2022-11-26T01:22:02.527Z,16.70
2022-11-26T01:23:23.949Z,17.70
2022-11-26T01:24:45.361Z,16.61
2022-11-26T01:26:18.489Z,17.08
2022-11-26T01:27:39.649Z,19.50
2022-11-26T01:29:01.294Z,16.79
2022-11-26T01:30:24.901Z,17.82
2022-11-26T01:31:47.871Z,15.83
2022-11-26T01:34:30.259Z,16.26
2022-11-26T01:35:51.569Z,17.03
2022-11-26T01:37:12.963Z,18.12
2022-11-26T01:38:34.027Z,19.04
2022-11-26T01:39:55.664Z,19.28
2022-11-26T01:41:29.817Z,17.93
2022-11-26T01:44:18.541Z,18.83
2022-11-26T01:45:40.048Z,18.48
2022-11-26T01:47:01.719Z,17.96
2022-11-26T01:48:26.598Z,17.19
2022-11-26T01:51:36.376Z,17.67
2022-11-26T01:53:12.646Z,17.42
2022-11-26T01:54:34.600Z,17.47
2022-11-26T01:55:59.951Z,18.17
2022-11-26T01:57:24.146Z,16.74
2022-11-26T01:58:48.405Z,17.84
2022-11-26T02:00:10.777Z,18.44
2022-11-26T02:01:32.318Z,14.77
2022-11-26T02:02:53.331Z,18.85
2022-11-26T02:05:41.959Z,18.35
2022-11-26T02:07:03.079Z,17.39
2022-11-26T02:08:25.270Z,17.42
2022-11-26T02:09:46.625Z,14.73
2022-11-26T02:11:16.357Z,17.77
2022-11-26T02:12:38.030Z,19.27
2022-11-26T02:14:02.372Z,17.40
2022-11-26T02:15:23.649Z,19.08
2022-11-26T02:17:04.029Z,19.67
2022-11-26T02:18:25.069Z,18.45
2022-11-26T02:20:09.942Z,17.61
2022-11-26T02:21:31.464Z,18.26
2022-11-26T02:23:05.440Z,19.08
2022-11-26T02:26:29.041Z,19.03
2022-11-26T02:28:18.068Z,20.47
2022-11-26T02:29:49.191Z,22.31
2022-11-26T02:32:59.437Z,25.58
2022-11-26T02:34:37.420Z,25.66
2022-11-26T02:35:59.156Z,23.53
2022-11-26T02:38:35.719Z,19.76
2022-11-26T02:39:57.155Z,23.24
2022-11-26T02:41:18.431Z,21.13
2022-11-26T02:42:39.871Z,22.59
2022-11-26T02:44:02.379Z,22.47
2022-11-26T02:45:25.904Z,15.13
2022-11-26T02:46:48.094Z,20.38
2022-11-26T02:48:13.323Z,14.64
2022-11-26T02:49:34.817Z,20.32
2022-11-26T02:50:58.827Z,20.09
2022-11-26T02:52:20.318Z,20.84
2022-11-26T02:53:41.606Z,20.87
2022-11-26T02:55:03.503Z,21.29
2022-11-26T02:56:25.986Z,19.73
2022-11-26T02:57:48.318Z,22.97
2022-11-26T02:59:09.723Z,23.77
2022-11-26T03:00:34.157Z,19.80
2022-11-26T03:01:58.507Z,19.77
2022-11-26T03:05:52.569Z,19.96
2022-11-26T03:07:13.870Z,19.33
2022-11-26T03:08:36.861Z,18.01
2022-11-26T03:09:59.395Z,19.82
2022-11-26T03:11:20.830Z,18.52
2022-11-26T03:12:42.258Z,21.04
2022-11-26T03:14:03.803Z,18.62
2022-11-26T03:15:25.350Z,18.07
2022-11-26T03:16:47.194Z,20.81
2022-11-26T03:18:08.330Z,17.87
2022-11-26T03:19:29.731Z,19.52
2022-11-26T03:20:52.653Z,20.78
2022-11-26T03:22:14.246Z,20.62
2022-11-26T03:23:35.802Z,18.21
2022-11-26T03:24:57.096Z,17.33
2022-11-26T03:26:18.857Z,18.56
2022-11-26T03:27:40.183Z,17.76
2022-11-26T03:29:01.193Z,20.83
2022-11-26T03:30:22.271Z,18.39
2022-11-26T03:31:43.934Z,18.83
2022-11-26T03:33:07.425Z,18.86
2022-11-26T03:34:28.905Z,19.76
2022-11-26T03:35:50.388Z,18.87
2022-11-26T03:37:11.785Z,18.29
2022-11-26T03:38:33.230Z,19.04
2022-11-26T03:39:54.865Z,17.76
2022-11-26T03:41:16.232Z,18.72
2022-11-26T03:42:37.799Z,19.65
2022-11-26T03:43:59.145Z,20.54
2022-11-26T03:45:20.612Z,19.52
2022-11-26T03:46:42.242Z,18.88
2022-11-26T03:48:03.943Z,18.90
2022-11-26T03:49:25.555Z,18.79
2022-11-26T03:50:47.009Z,19.88
2022-11-26T03:52:08.529Z,20.06
2022-11-26T03:53:29.882Z,19.01
2022-11-26T03:54:51.345Z,19.91
2022-11-26T03:56:13.091Z,18.85
2022-11-26T03:57:34.382Z,20.68
2022-11-26T03:58:55.981Z,20.03
2022-11-26T04:00:18.471Z,21.83
2022-11-26T04:01:39.810Z,21.70
2022-11-26T04:03:01.405Z,20.14
2022-11-26T04:04:23.108Z,21.09
2022-11-26T04:05:44.205Z,21.69
2022-11-26T04:07:05.751Z,20.54
2022-11-26T04:08:27.214Z,22.65
2022-11-26T04:09:48.922Z,18.75
2022-11-26T04:11:10.228Z,20.67
2022-11-26T04:12:31.772Z,20.70
2022-11-26T04:13:53.092Z,17.37
2022-11-26T04:15:14.915Z,18.77
2022-11-26T04:16:36.604Z,20.26
2022-11-26T04:17:57.946Z,18.96
2022-11-26T04:19:19.579Z,18.02
2022-11-26T04:20:42.161Z,19.92
2022-11-26T04:22:03.800Z,18.45
2022-11-26T04:23:25.113Z,18.93
2022-11-26T04:24:46.490Z,18.89
2022-11-26T04:26:08.110Z,17.93
2022-11-26T04:27:29.593Z,21.48
2022-11-26T04:28:50.731Z,16.41
2022-11-26T04:30:14.017Z,17.19
2022-11-26T04:31:35.318Z,18.61
2022-11-26T04:32:56.688Z,15.42
2022-11-26T04:34:17.972Z,14.87
2022-11-26T04:35:39.628Z,16.14
2022-11-26T04:37:03.264Z,16.25
2022-11-26T04:38:26.042Z,17.42
2022-11-26T04:39:47.193Z,18.18
2022-11-26T04:41:08.697Z,16.23
2022-11-26T04:42:30.243Z,18.97
2022-11-26T04:43:51.563Z,17.25
2022-11-26T04:45:13.321Z,16.17
2022-11-26T04:46:34.763Z,19.18
2022-11-26T04:47:55.937Z,17.26
2022-11-26T04:49:17.309Z,17.12
2022-11-26T04:50:38.786Z,20.04
2022-11-26T04:52:00.916Z,18.84
2022-11-26T04:53:23.164Z,19.85
2022-11-26T04:54:44.320Z,17.97
2022-11-26T04:56:06.440Z,20.61
2022-11-26T04:57:27.896Z,17.20
2022-11-26T04:58:49.438Z,21.37
2022-11-26T05:00:12.312Z,20.28
2022-11-26T05:01:34.589Z,19.05
2022-11-26T05:02:55.884Z,18.19
2022-11-26T05:04:17.103Z,17.71
2022-11-26T05:05:38.626Z,18.96
2022-11-26T05:07:00.177Z,17.15
2022-11-26T05:08:21.539Z,18.03
2022-11-26T05:09:43.111Z,17.70
2022-11-26T05:11:04.904Z,18.18
2022-11-26T05:12:26.258Z,19.21
2022-11-26T05:13:48.833Z,20.46
2022-11-26T05:15:10.535Z,21.14
2022-11-26T05:16:33.058Z,18.22
2022-11-26T05:17:54.279Z,18.12
2022-11-26T05:19:15.616Z,20.46
2022-11-26T05:20:38.824Z,17.24
2022-11-26T05:21:59.858Z,17.41
2022-11-26T05:23:23.943Z,17.04
2022-11-26T05:24:45.352Z,18.29
2022-11-26T05:26:07.210Z,16.51
2022-11-26T05:27:28.740Z,16.77
2022-11-26T05:28:50.334Z,16.52
2022-11-26T05:30:12.860Z,16.93
2022-11-26T05:31:34.406Z,13.60
2022-11-26T05:32:56.922Z,15.83
2022-11-26T05:34:18.020Z,16.00
2022-11-26T05:35:39.541Z,15.06
2022-11-26T05:37:00.785Z,15.79
2022-11-26T05:38:23.045Z,14.87
2022-11-26T05:39:44.378Z,17.06
2022-11-26T05:41:06.074Z,15.01
2022-11-26T05:42:27.503Z,14.91
2022-11-26T05:43:49.237Z,15.44
2022-11-26T05:45:11.904Z,16.64
2022-11-26T05:46:33.004Z,15.16
2022-11-26T05:47:54.200Z,15.13
2022-11-26T05:49:15.592Z,14.58
2022-11-26T05:50:36.708Z,15.17
2022-11-26T05:51:57.996Z,15.52
2022-11-26T05:53:19.638Z,12.96
2022-11-26T05:54:41.427Z,14.48
2022-11-26T05:56:03.528Z,11.99
2022-11-26T05:57:24.830Z,15.07
2022-11-26T05:58:46.332Z,14.59
2022-11-26T06:00:11.401Z,15.20
2022-11-26T06:01:33.704Z,15.28
2022-11-26T06:02:55.064Z,14.12
2022-11-26T06:04:16.499Z,14.38
2022-11-26T06:05:37.816Z,16.07
2022-11-26T06:06:59.747Z,15.86
2022-11-26T06:08:20.990Z,13.52
2022-11-26T06:09:42.048Z,15.28
2022-11-26T06:11:04.191Z,13.71
2022-11-26T06:12:27.580Z,10.77
2022-11-26T06:13:50.171Z,13.53
2022-11-26T06:15:12.687Z,13.75
2022-11-26T06:16:34.075Z,16.41
2022-11-26T06:17:55.614Z,13.37
2022-11-26T06:19:16.888Z,14.59
2022-11-26T06:20:38.262Z,14.33
2022-11-26T06:21:59.683Z,13.59
2022-11-26T06:23:20.818Z,14.86
2022-11-26T06:24:42.300Z,15.88
2022-11-26T06:26:08.300Z,16.12
2022-11-26T06:27:31.494Z,16.52
2022-11-26T06:28:52.576Z,15.64
2022-11-26T06:30:20.675Z,16.94
2022-11-26T06:31:42.291Z,17.71
2022-11-26T06:33:03.741Z,18.33
2022-11-26T06:34:25.137Z,17.49
2022-11-26T06:35:46.602Z,17.01
2022-11-26T06:37:08.814Z,14.81
2022-11-26T06:38:31.916Z,17.72
2022-11-26T06:39:52.961Z,17.54
2022-11-26T06:41:14.742Z,15.65
2022-11-26T06:42:37.442Z,17.28
2022-11-26T06:43:59.028Z,18.35
2022-11-26T06:45:21.071Z,18.94
2022-11-26T06:46:42.486Z,21.09
2022-11-26T06:48:04.145Z,18.56
2022-11-26T06:49:28.489Z,18.43
2022-11-26T06:50:49.978Z,18.16
2022-11-26T06:52:12.147Z,18.78
2022-11-26T06:53:33.251Z,21.30
2022-11-26T06:54:54.966Z,17.51
2022-11-26T06:56:19.442Z,19.60
2022-11-26T06:57:40.809Z,18.37
2022-11-26T06:59:01.968Z,19.46
2022-11-26T07:00:23.473Z,20.38
2022-11-26T07:01:44.808Z,19.71
2022-11-26T07:03:07.155Z,15.77
2022-11-26T07:04:28.763Z,21.46
2022-11-26T07:05:50.393Z,22.02
2022-11-26T07:07:12.257Z,19.65
2022-11-26T07:08:33.423Z,22.54
2022-11-26T07:09:57.968Z,23.14
2022-11-26T07:11:20.536Z,20.32
2022-11-26T07:12:42.037Z,20.59
2022-11-26T07:14:04.316Z,20.79
2022-11-26T07:15:26.970Z,23.72
2022-11-26T07:16:49.708Z,20.66
2022-11-26T07:18:12.352Z,20.84
2022-11-26T07:19:33.883Z,18.34
2022-11-26T07:20:55.313Z,19.66
2022-11-26T07:22:16.890Z,20.93
2022-11-26T07:23:38.582Z,18.64
2022-11-26T07:25:00.359Z,21.08
2022-11-26T07:26:22.841Z,20.16
2022-11-26T07:27:44.256Z,19.30
2022-11-26T07:29:05.691Z,19.63
2022-11-26T07:30:29.269Z,19.49
2022-11-26T07:33:00.598Z,22.81
2022-11-26T07:34:23.122Z,23.01
2022-11-26T07:35:44.321Z,20.38
2022-11-26T07:37:07.880Z,24.48
2022-11-26T07:38:29.404Z,20.97
2022-11-26T07:39:50.619Z,27.54
2022-11-26T07:41:13.383Z,23.64
2022-11-26T07:42:34.756Z,18.07
2022-11-26T07:43:56.301Z,17.92
2022-11-26T07:45:17.705Z,22.45
2022-11-26T07:46:39.188Z,19.29
2022-11-26T07:48:00.364Z,20.06
2022-11-26T07:49:22.063Z,20.57
2022-11-26T07:50:44.438Z,18.59
2022-11-26T07:52:05.760Z,18.44
2022-11-26T07:53:28.637Z,19.48
2022-11-26T07:54:49.940Z,19.95
2022-11-26T07:56:11.345Z,19.67
2022-11-26T07:57:32.801Z,20.19
2022-11-26T07:58:53.925Z,21.36
2022-11-26T08:00:16.779Z,17.91
2022-11-26T08:01:38.132Z,20.78
2022-11-26T08:02:59.556Z,19.72
2022-11-26T08:04:23.854Z,20.64
2022-11-26T08:05:45.219Z,22.31
2022-11-26T08:07:06.595Z,20.24
2022-11-26T08:08:28.209Z,22.14
2022-11-26T08:09:51.795Z,23.62
2022-11-26T08:11:24.355Z,21.67
2022-11-26T08:12:45.686Z,19.88
2022-11-26T08:14:09.460Z,23.13
2022-11-26T08:15:30.945Z,23.28
2022-11-26T08:16:52.731Z,23.26
2022-11-26T08:18:14.408Z,23.61
2022-11-26T08:19:37.202Z,22.43
2022-11-26T08:20:58.576Z,22.13
2022-11-26T08:22:20.167Z,18.81
2022-11-26T08:23:41.607Z,22.39
2022-11-26T08:25:05.949Z,21.78
2022-11-26T08:26:34.703Z,19.37
2022-11-26T08:27:52.104Z,22.21
2022-11-26T08:29:13.564Z,21.39
2022-11-26T08:30:34.884Z,20.97
2022-11-26T08:31:56.659Z,22.61
2022-11-26T08:33:18.051Z,23.37
2022-11-26T08:34:40.069Z,22.36
2022-11-26T08:36:08.905Z,21.62
2022-11-26T08:37:25.853Z,25.03
2022-11-26T08:38:47.619Z,24.19
2022-11-26T08:40:13.835Z,26.76
2022-11-26T08:41:34.306Z,25.03
2022-11-26T08:42:55.650Z,26.09
2022-11-26T08:44:17.312Z,22.97
2022-11-26T08:45:38.590Z,35.79
2022-11-26T08:47:00.346Z,24.75
2022-11-26T08:48:23.100Z,23.32
2022-11-26T08:49:47.340Z,24.35
2022-11-26T08:51:10.856Z,24.63
2022-11-26T08:53:56.548Z,17.58
2022-11-26T08:55:23.639Z,22.93
2022-11-26T08:56:41.210Z,22.99
2022-11-26T08:58:02.325Z,26.26
2022-11-26T08:59:23.632Z,26.88
2022-11-26T09:00:45.209Z,26.01
2022-11-26T09:02:09.959Z,25.30
2022-11-26T09:03:31.709Z,24.58
2022-11-26T09:04:52.763Z,22.88
2022-11-26T09:06:14.090Z,23.88
2022-11-26T09:07:37.159Z,24.08
2022-11-26T09:10:20.246Z,34.42
2022-11-26T09:11:52.535Z,30.86
2022-11-26T09:13:17.240Z,29.72
2022-11-26T09:14:38.844Z,26.13
2022-11-26T09:16:00.908Z,28.34
2022-11-26T09:17:24.537Z,30.86
2022-11-26T09:18:45.743Z,30.06
2022-11-26T09:20:07.867Z,28.70
2022-11-26T09:21:29.402Z,25.21
2022-11-26T09:22:50.592Z,26.07
2022-11-26T09:24:12.238Z,24.68
2022-11-26T09:25:33.518Z,23.96
2022-11-26T09:26:54.661Z,20.57
2022-11-26T09:28:15.851Z,22.77
2022-11-26T09:29:37.350Z,23.56
2022-11-26T09:30:59.507Z,22.49
2022-11-26T09:32:27.130Z,25.65
2022-11-26T09:35:06.070Z,22.40
2022-11-26T09:36:27.381Z,23.73
2022-11-26T09:39:12.576Z,21.83
2022-11-26T09:40:48.842Z,30.16
2022-11-26T09:44:34.435Z,32.53
2022-11-26T09:45:56.059Z,24.18
2022-11-26T09:47:23.371Z,23.00
2022-11-26T09:48:44.920Z,24.68
2022-11-26T09:50:22.468Z,22.07
2022-11-26T09:51:46.568Z,23.17
2022-11-26T09:54:30.707Z,22.37
2022-11-26T09:55:55.855Z,21.04
2022-11-26T09:57:32.712Z,23.31
2022-11-26T09:58:56.605Z,25.94
2022-11-26T10:00:21.657Z,21.28
2022-11-26T10:01:43.776Z,21.08
2022-11-26T10:03:11.537Z,22.80
2022-11-26T10:04:32.923Z,26.38
2022-11-26T10:05:59.122Z,31.88
2022-11-26T10:07:45.451Z,29.23
2022-11-26T10:09:33.016Z,29.31
2022-11-26T10:10:58.788Z,27.67
2022-11-26T10:14:02.860Z,29.33
2022-11-26T10:15:30.418Z,25.41
2022-11-26T10:17:11.005Z,24.57
2022-11-26T10:20:23.762Z,18.05
2022-11-26T10:23:21.167Z,24.32
2022-11-26T10:24:43.881Z,24.49
2022-11-26T10:26:09.297Z,23.82
2022-11-26T10:27:32.903Z,25.19
2022-11-26T10:29:03.904Z,24.28
2022-11-26T10:30:27.584Z,24.17
2022-11-26T10:31:50.075Z,23.78
2022-11-26T10:33:11.769Z,24.54
2022-11-26T10:34:39.213Z,28.12
2022-11-26T10:36:00.467Z,25.26
2022-11-26T10:37:23.220Z,22.42
2022-11-26T10:38:44.306Z,19.29
2022-11-26T10:41:36.032Z,19.83
2022-11-26T10:43:09.784Z,19.45
2022-11-26T10:44:35.325Z,20.97
2022-11-26T10:45:58.138Z,23.19
2022-11-26T10:47:23.567Z,21.67
2022-11-26T10:48:44.848Z,24.78
2022-11-26T10:50:31.887Z,20.88
2022-11-26T10:52:51.612Z,16.89
2022-11-26T10:54:27.134Z,19.00
2022-11-26T10:55:48.592Z,19.31
2022-11-26T10:57:13.410Z,17.84
2022-11-26T10:58:39.896Z,18.37
2022-11-26T11:00:02.819Z,19.66
2022-11-26T11:01:23.874Z,17.02
2022-11-26T11:02:47.218Z,18.66
2022-11-26T11:04:26.662Z,16.39
2022-11-26T11:05:48.312Z,19.71
2022-11-26T11:08:48.299Z,20.31
2022-11-26T11:10:13.597Z,18.34
2022-11-26T11:11:34.999Z,20.63
2022-11-26T11:14:29.876Z,19.34
2022-11-26T11:16:02.131Z,15.89
2022-11-26T11:18:59.222Z,14.34
2022-11-26T11:21:34.943Z,15.38
2022-11-26T11:23:07.755Z,14.65
2022-11-26T11:24:30.596Z,16.67
2022-11-26T11:27:27.064Z,12.10
2022-11-26T11:28:50.362Z,13.18
2022-11-26T11:30:28.797Z,11.93
2022-11-26T11:31:50.150Z,12.13
2022-11-26T11:33:20.328Z,14.56
2022-11-26T11:34:42.011Z,14.85
2022-11-26T11:36:07.570Z,14.66
2022-11-26T11:37:28.711Z,14.26
2022-11-26T11:38:57.944Z,16.08
2022-11-26T11:40:24.393Z,14.98
2022-11-26T11:41:46.122Z,14.96
2022-11-26T11:43:12.324Z,17.49
2022-11-26T11:44:46.290Z,16.36
2022-11-26T11:47:51.089Z,13.62
2022-11-26T11:49:20.516Z,18.71
2022-11-26T11:50:43.602Z,15.34
2022-11-26T11:52:25.176Z,15.49
2022-11-26T11:54:04.866Z,15.85
2022-11-26T11:55:34.277Z,14.58
2022-11-26T11:57:05.313Z,17.26
2022-11-26T11:58:42.132Z,15.62
2022-11-26T12:00:16.233Z,17.26
2022-11-26T12:02:01.176Z,16.78
2022-11-26T12:03:42.667Z,16.21
2022-11-26T12:05:24.626Z,17.01
2022-11-26T12:07:10.833Z,12.97
2022-11-26T12:08:52.568Z,12.43
2022-11-26T12:10:32.442Z,12.44
2022-11-26T12:12:11.902Z,16.50
2022-11-26T12:15:14.021Z,12.99
2022-11-26T12:16:41.690Z,15.03
2022-11-26T12:18:22.475Z,18.39
2022-11-26T12:19:58.665Z,18.18
2022-11-26T12:21:25.745Z,15.61
2022-11-26T12:22:50.992Z,11.61
2022-11-26T12:24:27.704Z,13.24
2022-11-26T12:27:31.556Z,11.57
2022-11-26T12:29:08.724Z,15.26
2022-11-26T12:30:36.962Z,14.18
2022-11-26T12:33:28.657Z,12.68
2022-11-26T12:34:52.187Z,15.59
2022-11-26T12:37:39.196Z,15.83
2022-11-26T12:40:49.516Z,15.00
2022-11-26T12:43:52.717Z,10.11
2022-11-26T12:45:35.303Z,12.04
2022-11-26T12:47:00.628Z,14.36
2022-11-26T12:48:34.756Z,14.21
2022-11-26T12:50:16.382Z,13.58
2022-11-26T12:52:02.322Z,14.83
2022-11-26T12:53:44.602Z,14.36
2022-11-26T12:55:15.881Z,12.06
2022-11-26T12:56:46.481Z,14.72
2022-11-26T12:58:11.501Z,14.46
2022-11-26T12:59:36.575Z,13.96
2022-11-26T13:00:58.190Z,12.95
2022-11-26T13:03:40.808Z,13.75
2022-11-26T13:05:02.307Z,13.80
2022-11-26T13:06:27.414Z,14.84
2022-11-26T13:09:50.359Z,8.53
2022-11-26T13:11:37.920Z,14.36
2022-11-26T13:13:23.698Z,12.78
2022-11-26T13:16:21.743Z,12.26
2022-11-26T13:17:45.313Z,12.58
2022-11-26T13:20:41.721Z,12.11
2022-11-26T13:22:24.891Z,11.73
2022-11-26T13:25:35.630Z,12.76
2022-11-26T13:29:09.937Z,14.33
2022-11-26T13:30:41.233Z,10.75
2022-11-26T13:32:21.491Z,12.07
2022-11-26T13:34:01.956Z,13.06
2022-11-26T13:35:47.367Z,12.67
2022-11-26T13:37:15.127Z,15.76
2022-11-26T13:38:58.312Z,11.97
2022-11-26T13:40:36.272Z,11.69
2022-11-26T13:43:43.788Z,11.43
2022-11-26T13:46:41.201Z,12.72
2022-11-26T13:49:47.778Z,13.33
2022-11-26T13:51:19.050Z,14.31
2022-11-26T13:52:50.107Z,14.57
2022-11-26T13:54:17.743Z,13.98
2022-11-26T13:57:09.507Z,15.54
2022-11-26T13:59:49.871Z,16.16
2022-11-26T14:01:30.501Z,15.43
2022-11-26T14:02:52.164Z,18.48
2022-11-26T14:04:23.565Z,18.45
2022-11-26T14:05:54.528Z,18.37
2022-11-26T14:07:17.960Z,19.26
2022-11-26T14:08:42.107Z,20.41
2022-11-26T14:10:05.328Z,22.12
2022-11-26T14:13:07.120Z,22.93
2022-11-26T14:14:30.798Z,22.43
2022-11-26T14:15:57.339Z,19.89
2022-11-26T14:17:20.610Z,20.46
2022-11-26T14:18:51.617Z,22.21
2022-11-26T14:20:13.015Z,25.33
2022-11-26T14:21:37.855Z,23.93
2022-11-26T14:23:04.850Z,23.16
2022-11-26T14:24:51.163Z,21.67
2022-11-26T14:26:34.960Z,25.20
2022-11-26T14:27:56.069Z,18.10
2022-11-26T14:29:17.459Z,23.58
2022-11-26T14:30:38.865Z,23.88
2022-11-26T14:32:00.484Z,24.42
2022-11-26T14:33:23.656Z,20.46
2022-11-26T14:34:51.203Z,25.88
2022-11-26T14:36:21.117Z,27.86
2022-11-26T14:37:45.958Z,23.17
2022-11-26T14:39:13.664Z,22.75
2022-11-26T14:40:36.339Z,25.35
2022-11-26T14:42:05.309Z,27.37
2022-11-26T14:43:22.272Z,26.35
2022-11-26T14:44:44.908Z,29.71
2022-11-26T14:46:15.927Z,27.48
2022-11-26T14:47:37.140Z,24.62
2022-11-26T14:49:00.042Z,24.89
2022-11-26T14:51:45.518Z,23.52
2022-11-26T14:53:09.090Z,28.24
2022-11-26T14:55:50.316Z,25.01
2022-11-26T14:57:21.375Z,27.15
2022-11-26T14:58:45.840Z,25.56
2022-11-26T15:00:13.875Z,26.04
2022-11-26T15:01:36.602Z,31.51
2022-11-26T15:02:58.046Z,25.68
2022-11-26T15:04:27.543Z,26.73
2022-11-26T15:05:49.144Z,27.87
2022-11-26T15:07:24.824Z,25.87
2022-11-26T15:08:48.253Z,27.44
2022-11-26T15:10:16.950Z,26.62
2022-11-26T15:12:57.437Z,24.92
2022-11-26T15:14:31.080Z,25.47
2022-11-26T15:17:23.535Z,27.62
2022-11-26T15:18:45.180Z,26.84
2022-11-26T15:20:09.350Z,29.14
2022-11-26T15:22:56.819Z,29.81
2022-11-26T15:24:18.060Z,26.60
2022-11-26T15:25:39.308Z,30.67
2022-11-26T15:27:03.223Z,37.76
2022-11-26T15:28:24.936Z,33.69
2022-11-26T15:29:49.121Z,39.50
2022-11-26T15:31:10.479Z,39.71
2022-11-26T15:32:34.450Z,41.68
2022-11-26T15:33:56.293Z,40.67
2022-11-26T15:35:17.623Z,39.75
2022-11-26T15:36:40.193Z,35.74
2022-11-26T15:38:02.104Z,38.49
2022-11-26T15:39:31.890Z,36.93
2022-11-26T15:40:58.961Z,31.89
2022-11-26T15:42:29.291Z,35.15
2022-11-26T15:43:54.581Z,37.72
2022-11-26T15:46:36.531Z,41.56
2022-11-26T15:47:57.902Z,40.11
2022-11-26T15:49:23.425Z,38.87
2022-11-26T15:50:45.681Z,36.33
2022-11-26T15:52:09.387Z,39.76
2022-11-26T15:53:33.250Z,38.87
2022-11-26T15:55:13.615Z,37.14
2022-11-26T15:56:35.143Z,39.84
2022-11-26T15:57:58.277Z,34.48
2022-11-26T15:59:20.126Z,34.83
2022-11-26T16:00:41.640Z,37.47
2022-11-26T16:02:05.619Z,37.96
2022-11-26T16:03:39.920Z,41.46
2022-11-26T16:05:01.832Z,37.90
2022-11-26T16:06:35.882Z,41.67
2022-11-26T16:09:18.237Z,32.61
2022-11-26T16:10:40.390Z,38.27
2022-11-26T16:12:01.733Z,35.44
2022-11-26T16:13:28.427Z,34.82
2022-11-26T16:14:49.892Z,30.92
2022-11-26T16:16:19.349Z,33.64
2022-11-26T16:17:42.468Z,31.73
2022-11-26T16:20:28.316Z,29.54
2022-11-26T16:21:51.794Z,28.95
2022-11-26T16:23:26.113Z,31.44
2022-11-26T16:25:05.189Z,26.71
2022-11-26T16:26:26.715Z,32.27
2022-11-26T16:28:13.292Z,31.60
2022-11-26T16:29:35.025Z,31.24
2022-11-26T16:30:56.598Z,31.19
2022-11-26T16:32:17.909Z,33.46
2022-11-26T16:33:39.837Z,31.45
2022-11-26T16:35:17.419Z,30.17
2022-11-26T16:36:26.984Z,29.58
2022-11-26T16:37:48.419Z,27.86
2022-11-26T16:39:12.476Z,36.75
2022-11-26T16:40:34.606Z,31.92
2022-11-26T16:41:56.050Z,33.83
2022-11-26T16:43:17.352Z,34.07
2022-11-26T16:44:38.948Z,28.87
2022-11-26T16:46:00.359Z,38.31
2022-11-26T16:47:26.363Z,37.35
2022-11-26T16:48:47.331Z,35.28
2022-11-26T16:50:26.255Z,35.23
2022-11-26T16:51:47.637Z,33.13
2022-11-26T16:53:09.166Z,34.30
2022-11-26T16:54:30.188Z,40.54
2022-11-26T16:55:53.066Z,39.73
2022-11-26T16:57:26.494Z,35.15
2022-11-26T16:58:47.696Z,35.58
2022-11-26T17:00:12.865Z,35.22
2022-11-26T17:01:33.996Z,39.72
2022-11-26T17:02:55.349Z,32.50
2022-11-26T17:04:16.934Z,33.70
2022-11-26T17:05:39.709Z,34.73
2022-11-26T17:07:00.770Z,28.86
2022-11-26T17:08:22.022Z,32.75
2022-11-26T17:09:43.524Z,39.72
2022-11-26T17:11:05.530Z,42.90
2022-11-26T17:12:27.135Z,40.24
2022-11-26T17:13:48.569Z,39.78
2022-11-26T17:15:10.759Z,36.30
2022-11-26T17:16:32.386Z,30.08
2022-11-26T17:17:56.892Z,38.98
2022-11-26T17:19:18.516Z,39.19
2022-11-26T17:20:41.067Z,37.16
2022-11-26T17:22:04.072Z,43.64
2022-11-26T17:24:46.383Z,41.31
2022-11-26T17:27:27.112Z,37.61
2022-11-26T17:28:49.132Z,40.44
2022-11-26T17:30:16.381Z,38.98
2022-11-26T17:31:40.031Z,35.77
2022-11-26T17:33:01.639Z,40.88
2022-11-26T17:34:23.030Z,42.54
2022-11-26T17:35:45.207Z,44.34
2022-11-26T17:38:26.474Z,42.09
2022-11-26T17:39:47.814Z,38.17
2022-11-26T17:41:09.531Z,44.88
2022-11-26T17:42:36.502Z,35.03
2022-11-26T17:43:54.832Z,42.11
2022-11-26T17:45:16.762Z,40.86
2022-11-26T17:47:01.026Z,42.55
2022-11-26T17:48:01.502Z,40.48
2022-11-26T17:49:24.288Z,35.45
2022-11-26T17:50:46.082Z,37.97
2022-11-26T17:52:07.793Z,41.53
2022-11-26T17:55:11.860Z,47.28
2022-11-26T17:56:34.109Z,40.16
2022-11-26T17:57:55.765Z,36.26
2022-11-26T17:59:19.968Z,32.77
2022-11-26T18:00:42.309Z,39.94
2022-11-26T18:02:04.028Z,39.73
2022-11-26T18:03:25.804Z,42.58
2022-11-26T18:04:48.206Z,40.44
2022-11-26T18:06:42.979Z,37.31
2022-11-26T18:08:05.905Z,41.56
2022-11-26T18:09:28.539Z,40.06
2022-11-26T18:10:51.691Z,40.09
2022-11-26T18:13:28.213Z,40.53
2022-11-26T18:14:51.437Z,41.67
2022-11-26T18:16:13.149Z,41.30
2022-11-26T18:17:34.549Z,39.05
2022-11-26T18:18:56.042Z,41.39
2022-11-26T18:20:18.944Z,39.06
2022-11-26T18:21:40.434Z,42.19
2022-11-26T18:23:01.808Z,45.65
2022-11-26T18:24:25.807Z,47.18
2022-11-26T18:25:47.720Z,43.12
2022-11-26T18:27:08.842Z,44.38
2022-11-26T18:28:30.306Z,42.89
2022-11-26T18:29:51.787Z,45.07
2022-11-26T18:31:13.260Z,45.54
2022-11-26T18:32:38.971Z,43.90
2022-11-26T18:34:02.232Z,46.98
2022-11-26T18:35:25.163Z,44.93
2022-11-26T18:36:52.192Z,37.01
2022-11-26T18:38:10.404Z,43.96
2022-11-26T18:39:31.606Z,45.76
2022-11-26T18:41:00.165Z,56.39
2022-11-26T18:42:36.612Z,56.29
2022-11-26T18:43:45.700Z,53.42
2022-11-26T18:45:09.659Z,39.89
2022-11-26T18:46:31.533Z,55.41
2022-11-26T18:47:54.398Z,49.61
2022-11-26T18:49:15.819Z,46.09
2022-11-26T18:50:39.007Z,49.08
2022-11-26T18:52:00.458Z,54.13
2022-11-26T18:53:22.450Z,50.23
2022-11-26T18:54:43.841Z,50.02
2022-11-26T18:56:12.971Z,55.99
2022-11-26T18:57:35.496Z,48.22
2022-11-26T18:59:12.424Z,51.59
2022-11-26T19:00:34.157Z,54.06
2022-11-26T19:01:57.804Z,51.27
2022-11-26T19:03:18.980Z,54.07
2022-11-26T19:04:41.601Z,52.30
2022-11-26T19:06:06.857Z,48.76
2022-11-26T19:07:28.324Z,51.33
2022-11-26T19:08:50.734Z,51.03
2022-11-26T19:10:12.005Z,56.14
2022-11-26T19:11:33.033Z,53.36
2022-11-26T19:12:54.857Z,51.03
2022-11-26T19:14:16.432Z,51.58
2022-11-26T19:15:43.304Z,55.93
2022-11-26T19:17:04.529Z,52.26
2022-11-26T19:18:28.072Z,52.21
2022-11-26T19:19:49.457Z,57.01
2022-11-26T19:21:26.191Z,50.99
2022-11-26T19:22:47.796Z,56.06
2022-11-26T19:24:15.564Z,53.03
2022-11-26T19:27:24.197Z,58.16
2022-11-26T19:28:45.938Z,52.11
2022-11-26T19:31:30.255Z,46.68
2022-11-26T19:32:51.862Z,54.76
2022-11-26T19:34:15.852Z,51.78
2022-11-26T19:35:40.065Z,51.20
2022-11-26T19:37:01.313Z,57.16
2022-11-26T19:38:25.576Z,57.17